sensor_id;sensor_type;location;lat;lon;timestamp;P1;durP1;ratioP1;P2;durP2;ratioP2
19049;SDS011;9657;45.940;12.840;2023-06-24T00:00:10;4.03;;;3.63;;
19049;SDS011;9657;45.940;12.840;2023-06-24T00:02:38;3.60;;;3.30;;
19049;SDS011;9657;45.940;12.840;2023-06-24T00:05:08;3.55;;;3.05;;
19049;SDS011;9657;45.940;12.840;2023-06-24T00:07:37;4.90;;;3.47;;
19049;SDS011;9657;45.940;12.840;2023-06-24T00:10:09;4.18;;;3.05;;
19049;SDS011;9657;45.940;12.840;2023-06-24T00:12:37;3.85;;;3.35;;
19049;SDS011;9657;45.940;12.840;2023-06-24T00:15:07;3.10;;;2.80;;
19049;SDS011;9657;45.940;12.840;2023-06-24T00:17:35;3.25;;;2.92;;
19049;SDS011;9657;45.940;12.840;2023-06-24T00:20:02;3.53;;;3.22;;
19049;SDS011;9657;45.940;12.840;2023-06-24T00:22:32;3.50;;;3.20;;
19049;SDS011;9657;45.940;12.840;2023-06-24T00:25:01;4.13;;;3.75;;
19049;SDS011;9657;45.940;12.840;2023-06-24T00:27:28;3.42;;;3.13;;
19049;SDS011;9657;45.940;12.840;2023-06-24T00:29:55;3.25;;;3.05;;
19049;SDS011;9657;45.940;12.840;2023-06-24T00:32:22;3.78;;;3.30;;
19049;SDS011;9657;45.940;12.840;2023-06-24T00:34:49;4.22;;;3.60;;
19049;SDS011;9657;45.940;12.840;2023-06-24T00:37:16;3.78;;;3.15;;
19049;SDS011;9657;45.940;12.840;2023-06-24T00:39:43;3.78;;;3.38;;
19049;SDS011;9657;45.940;12.840;2023-06-24T00:42:11;3.20;;;2.95;;
19049;SDS011;9657;45.940;12.840;2023-06-24T00:44:38;3.53;;;3.20;;
19049;SDS011;9657;45.940;12.840;2023-06-24T00:47:06;3.50;;;3.15;;
19049;SDS011;9657;45.940;12.840;2023-06-24T00:49:35;3.53;;;3.13;;
19049;SDS011;9657;45.940;12.840;2023-06-24T00:52:02;3.55;;;3.25;;
19049;SDS011;9657;45.940;12.840;2023-06-24T00:54:30;4.45;;;3.08;;
19049;SDS011;9657;45.940;12.840;2023-06-24T00:56:57;3.55;;;3.25;;
19049;SDS011;9657;45.940;12.840;2023-06-24T00:59:27;3.47;;;3.17;;
19049;SDS011;9657;45.940;12.840;2023-06-24T01:04:32;5.93;;;3.30;;
19049;SDS011;9657;45.940;12.840;2023-06-24T01:07:00;3.70;;;3.30;;
19049;SDS011;9657;45.940;12.840;2023-06-24T01:09:29;3.28;;;2.97;;
19049;SDS011;9657;45.940;12.840;2023-06-24T01:11:56;3.30;;;2.83;;
19049;SDS011;9657;45.940;12.840;2023-06-24T01:14:23;3.45;;;3.15;;
19049;SDS011;9657;45.940;12.840;2023-06-24T01:16:54;3.50;;;3.20;;
19049;SDS011;9657;45.940;12.840;2023-06-24T01:22:19;3.10;;;2.85;;
19049;SDS011;9657;45.940;12.840;2023-06-24T01:25:08;3.60;;;3.28;;
19049;SDS011;9657;45.940;12.840;2023-06-24T01:28:04;3.45;;;3.03;;
19049;SDS011;9657;45.940;12.840;2023-06-24T01:33:50;3.28;;;2.88;;
19049;SDS011;9657;45.940;12.840;2023-06-24T01:36:25;3.33;;;2.90;;
19049;SDS011;9657;45.940;12.840;2023-06-24T01:38:55;3.70;;;3.15;;
19049;SDS011;9657;45.940;12.840;2023-06-24T01:41:29;2.97;;;2.67;;
19049;SDS011;9657;45.940;12.840;2023-06-24T01:43:58;3.88;;;3.35;;
19049;SDS011;9657;45.940;12.840;2023-06-24T01:46:29;3.90;;;3.50;;
19049;SDS011;9657;45.940;12.840;2023-06-24T01:48:58;3.72;;;2.75;;
19049;SDS011;9657;45.940;12.840;2023-06-24T01:51:28;2.85;;;2.60;;
19049;SDS011;9657;45.940;12.840;2023-06-24T01:54:00;3.58;;;3.28;;
19049;SDS011;9657;45.940;12.840;2023-06-24T01:56:33;3.35;;;3.05;;
19049;SDS011;9657;45.940;12.840;2023-06-24T01:59:02;3.25;;;2.95;;
19049;SDS011;9657;45.940;12.840;2023-06-24T02:01:32;3.00;;;2.70;;
19049;SDS011;9657;45.940;12.840;2023-06-24T02:04:01;4.13;;;3.38;;
19049;SDS011;9657;45.940;12.840;2023-06-24T02:06:30;3.47;;;3.05;;
19049;SDS011;9657;45.940;12.840;2023-06-24T02:08:58;4.43;;;3.00;;
19049;SDS011;9657;45.940;12.840;2023-06-24T02:11:26;3.58;;;3.05;;
19049;SDS011;9657;45.940;12.840;2023-06-24T02:13:56;3.10;;;2.80;;
19049;SDS011;9657;45.940;12.840;2023-06-24T02:16:27;3.55;;;3.25;;
19049;SDS011;9657;45.940;12.840;2023-06-24T02:18:57;2.97;;;2.67;;
19049;SDS011;9657;45.940;12.840;2023-06-24T02:21:24;3.35;;;3.03;;
19049;SDS011;9657;45.940;12.840;2023-06-24T02:23:53;3.30;;;2.60;;
19049;SDS011;9657;45.940;12.840;2023-06-24T02:26:21;3.45;;;3.15;;
19049;SDS011;9657;45.940;12.840;2023-06-24T02:28:50;3.25;;;2.95;;
19049;SDS011;9657;45.940;12.840;2023-06-24T02:31:19;2.92;;;2.65;;
19049;SDS011;9657;45.940;12.840;2023-06-24T02:33:46;3.50;;;3.10;;
19049;SDS011;9657;45.940;12.840;2023-06-24T02:36:15;3.38;;;3.08;;
19049;SDS011;9657;45.940;12.840;2023-06-24T02:38:42;3.20;;;2.90;;
19049;SDS011;9657;45.940;12.840;2023-06-24T02:41:09;3.35;;;3.05;;
19049;SDS011;9657;45.940;12.840;2023-06-24T02:43:36;3.33;;;3.03;;
19049;SDS011;9657;45.940;12.840;2023-06-24T02:46:03;4.25;;;2.90;;
19049;SDS011;9657;45.940;12.840;2023-06-24T02:48:34;3.10;;;2.70;;
19049;SDS011;9657;45.940;12.840;2023-06-24T02:51:02;2.97;;;2.67;;
19049;SDS011;9657;45.940;12.840;2023-06-24T02:53:32;3.28;;;2.97;;
19049;SDS011;9657;45.940;12.840;2023-06-24T02:56:00;3.33;;;3.03;;
19049;SDS011;9657;45.940;12.840;2023-06-24T02:58:29;2.92;;;2.67;;
19049;SDS011;9657;45.940;12.840;2023-06-24T03:00:57;3.33;;;3.03;;
19049;SDS011;9657;45.940;12.840;2023-06-24T03:03:25;3.42;;;3.13;;
19049;SDS011;9657;45.940;12.840;2023-06-24T03:05:54;3.30;;;3.00;;
19049;SDS011;9657;45.940;12.840;2023-06-24T03:08:22;3.22;;;2.92;;
19049;SDS011;9657;45.940;12.840;2023-06-24T03:10:53;3.28;;;2.97;;
19049;SDS011;9657;45.940;12.840;2023-06-24T03:13:21;2.92;;;2.72;;
19049;SDS011;9657;45.940;12.840;2023-06-24T03:15:49;3.00;;;2.70;;
19049;SDS011;9657;45.940;12.840;2023-06-24T03:18:16;2.97;;;2.70;;
19049;SDS011;9657;45.940;12.840;2023-06-24T03:20:43;3.10;;;2.80;;
19049;SDS011;9657;45.940;12.840;2023-06-24T03:23:10;3.00;;;2.70;;
19049;SDS011;9657;45.940;12.840;2023-06-24T03:25:37;3.30;;;3.00;;
19049;SDS011;9657;45.940;12.840;2023-06-24T03:28:06;3.65;;;3.00;;
19049;SDS011;9657;45.940;12.840;2023-06-24T03:30:33;3.35;;;3.00;;
19049;SDS011;9657;45.940;12.840;2023-06-24T03:33:00;3.10;;;2.88;;
19049;SDS011;9657;45.940;12.840;2023-06-24T03:35:27;3.33;;;3.03;;
19049;SDS011;9657;45.940;12.840;2023-06-24T03:37:54;3.17;;;2.88;;
19049;SDS011;9657;45.940;12.840;2023-06-24T03:40:22;3.42;;;3.03;;
19049;SDS011;9657;45.940;12.840;2023-06-24T03:42:49;3.50;;;2.72;;
19049;SDS011;9657;45.940;12.840;2023-06-24T03:45:17;3.40;;;3.08;;
19049;SDS011;9657;45.940;12.840;2023-06-24T03:47:44;3.80;;;2.42;;
19049;SDS011;9657;45.940;12.840;2023-06-24T03:50:11;4.20;;;2.95;;
19049;SDS011;9657;45.940;12.840;2023-06-24T03:52:38;2.95;;;2.70;;
19049;SDS011;9657;45.940;12.840;2023-06-24T03:55:05;3.22;;;2.80;;
19049;SDS011;9657;45.940;12.840;2023-06-24T03:57:33;2.85;;;2.65;;
19049;SDS011;9657;45.940;12.840;2023-06-24T04:00:00;3.25;;;2.90;;
19049;SDS011;9657;45.940;12.840;2023-06-24T04:02:32;3.03;;;2.83;;
19049;SDS011;9657;45.940;12.840;2023-06-24T04:04:59;4.30;;;2.90;;
19049;SDS011;9657;45.940;12.840;2023-06-24T04:07:26;2.95;;;2.60;;
19049;SDS011;9657;45.940;12.840;2023-06-24T04:09:54;3.17;;;2.88;;
19049;SDS011;9657;45.940;12.840;2023-06-24T04:12:21;3.05;;;2.75;;
19049;SDS011;9657;45.940;12.840;2023-06-24T04:14:48;3.53;;;2.92;;
19049;SDS011;9657;45.940;12.840;2023-06-24T04:17:15;2.63;;;2.42;;
19049;SDS011;9657;45.940;12.840;2023-06-24T04:19:44;3.03;;;2.72;;
19049;SDS011;9657;45.940;12.840;2023-06-24T04:22:11;2.78;;;2.58;;
19049;SDS011;9657;45.940;12.840;2023-06-24T04:24:38;2.92;;;2.55;;
19049;SDS011;9657;45.940;12.840;2023-06-24T04:27:06;3.58;;;2.72;;
19049;SDS011;9657;45.940;12.840;2023-06-24T04:29:34;2.90;;;2.58;;
19049;SDS011;9657;45.940;12.840;2023-06-24T04:32:02;3.28;;;2.50;;
19049;SDS011;9657;45.940;12.840;2023-06-24T04:34:29;3.13;;;2.80;;
19049;SDS011;9657;45.940;12.840;2023-06-24T04:36:59;3.53;;;2.67;;
19049;SDS011;9657;45.940;12.840;2023-06-24T04:39:26;3.42;;;2.88;;
19049;SDS011;9657;45.940;12.840;2023-06-24T04:41:53;3.25;;;2.95;;
19049;SDS011;9657;45.940;12.840;2023-06-24T04:44:20;2.53;;;2.33;;
19049;SDS011;9657;45.940;12.840;2023-06-24T04:46:47;2.30;;;2.08;;
19049;SDS011;9657;45.940;12.840;2023-06-24T04:49:14;2.97;;;2.45;;
19049;SDS011;9657;45.940;12.840;2023-06-24T04:51:41;2.90;;;2.45;;
19049;SDS011;9657;45.940;12.840;2023-06-24T04:54:09;2.80;;;2.50;;
19049;SDS011;9657;45.940;12.840;2023-06-24T04:56:38;3.10;;;2.63;;
19049;SDS011;9657;45.940;12.840;2023-06-24T04:59:05;3.05;;;2.75;;
19049;SDS011;9657;45.940;12.840;2023-06-24T05:01:32;3.15;;;2.83;;
19049;SDS011;9657;45.940;12.840;2023-06-24T05:03:59;3.03;;;2.40;;
19049;SDS011;9657;45.940;12.840;2023-06-24T05:06:26;2.53;;;2.33;;
19049;SDS011;9657;45.940;12.840;2023-06-24T05:08:53;2.85;;;2.47;;
19049;SDS011;9657;45.940;12.840;2023-06-24T05:11:22;3.35;;;2.53;;
19049;SDS011;9657;45.940;12.840;2023-06-24T05:13:49;3.50;;;3.00;;
19049;SDS011;9657;45.940;12.840;2023-06-24T05:16:16;5.43;;;2.70;;
19049;SDS011;9657;45.940;12.840;2023-06-24T05:18:43;3.40;;;2.60;;
19049;SDS011;9657;45.940;12.840;2023-06-24T05:21:11;6.72;;;3.13;;
19049;SDS011;9657;45.940;12.840;2023-06-24T05:23:38;2.80;;;2.50;;
19049;SDS011;9657;45.940;12.840;2023-06-24T05:26:05;4.95;;;3.00;;
19049;SDS011;9657;45.940;12.840;2023-06-24T05:28:33;4.18;;;2.85;;
19049;SDS011;9657;45.940;12.840;2023-06-24T05:31:00;4.20;;;2.97;;
19049;SDS011;9657;45.940;12.840;2023-06-24T05:33:27;3.40;;;3.10;;
19049;SDS011;9657;45.940;12.840;2023-06-24T05:35:54;3.40;;;2.97;;
19049;SDS011;9657;45.940;12.840;2023-06-24T05:38:21;5.65;;;3.42;;
19049;SDS011;9657;45.940;12.840;2023-06-24T05:40:48;6.07;;;3.10;;
19049;SDS011;9657;45.940;12.840;2023-06-24T05:43:15;3.30;;;2.88;;
19049;SDS011;9657;45.940;12.840;2023-06-24T05:45:44;3.55;;;3.17;;
19049;SDS011;9657;45.940;12.840;2023-06-24T05:48:11;3.00;;;2.75;;
19049;SDS011;9657;45.940;12.840;2023-06-24T05:50:39;5.18;;;3.47;;
19049;SDS011;9657;45.940;12.840;2023-06-24T05:53:06;3.60;;;2.92;;
19049;SDS011;9657;45.940;12.840;2023-06-24T05:55:33;4.60;;;3.33;;
19049;SDS011;9657;45.940;12.840;2023-06-24T05:58:00;4.00;;;2.95;;
19049;SDS011;9657;45.940;12.840;2023-06-24T06:00:27;3.40;;;3.10;;
19049;SDS011;9657;45.940;12.840;2023-06-24T06:02:56;6.60;;;3.22;;
19049;SDS011;9657;45.940;12.840;2023-06-24T06:05:23;4.10;;;3.20;;
19049;SDS011;9657;45.940;12.840;2023-06-24T06:07:50;4.95;;;3.45;;
19049;SDS011;9657;45.940;12.840;2023-06-24T06:10:18;4.50;;;3.05;;
19049;SDS011;9657;45.940;12.840;2023-06-24T06:12:46;3.88;;;3.28;;
19049;SDS011;9657;45.940;12.840;2023-06-24T06:15:13;4.20;;;3.17;;
19049;SDS011;9657;45.940;12.840;2023-06-24T06:17:40;4.82;;;3.60;;
19049;SDS011;9657;45.940;12.840;2023-06-24T06:20:09;4.18;;;3.50;;
19049;SDS011;9657;45.940;12.840;2023-06-24T06:22:37;4.93;;;3.50;;
19049;SDS011;9657;45.940;12.840;2023-06-24T06:25:04;6.60;;;3.92;;
19049;SDS011;9657;45.940;12.840;2023-06-24T06:27:32;6.45;;;4.07;;
19049;SDS011;9657;45.940;12.840;2023-06-24T06:29:59;6.13;;;3.20;;
19049;SDS011;9657;45.940;12.840;2023-06-24T06:32:26;5.45;;;3.55;;
19049;SDS011;9657;45.940;12.840;2023-06-24T06:34:53;6.90;;;3.35;;
19049;SDS011;9657;45.940;12.840;2023-06-24T06:37:22;4.95;;;3.63;;
19049;SDS011;9657;45.940;12.840;2023-06-24T06:39:49;5.18;;;3.97;;
19049;SDS011;9657;45.940;12.840;2023-06-24T06:42:16;4.45;;;3.17;;
19049;SDS011;9657;45.940;12.840;2023-06-24T06:44:43;6.88;;;3.80;;
19049;SDS011;9657;45.940;12.840;2023-06-24T06:47:10;4.93;;;3.55;;
19049;SDS011;9657;45.940;12.840;2023-06-24T06:49:37;7.18;;;3.53;;
19049;SDS011;9657;45.940;12.840;2023-06-24T06:52:05;5.15;;;3.45;;
19049;SDS011;9657;45.940;12.840;2023-06-24T06:54:34;4.25;;;2.92;;
19049;SDS011;9657;45.940;12.840;2023-06-24T06:57:01;4.22;;;3.45;;
19049;SDS011;9657;45.940;12.840;2023-06-24T06:59:29;4.00;;;3.42;;
19049;SDS011;9657;45.940;12.840;2023-06-24T07:01:56;4.45;;;3.30;;
19049;SDS011;9657;45.940;12.840;2023-06-24T07:04:23;4.68;;;3.65;;
19049;SDS011;9657;45.940;12.840;2023-06-24T07:06:50;4.60;;;3.42;;
19049;SDS011;9657;45.940;12.840;2023-06-24T07:09:17;4.28;;;3.15;;
19049;SDS011;9657;45.940;12.840;2023-06-24T07:11:46;5.03;;;3.25;;
19049;SDS011;9657;45.940;12.840;2023-06-24T07:14:13;4.68;;;3.13;;
19049;SDS011;9657;45.940;12.840;2023-06-24T07:16:40;3.22;;;2.92;;
19049;SDS011;9657;45.940;12.840;2023-06-24T07:19:07;4.25;;;3.10;;
19049;SDS011;9657;45.940;12.840;2023-06-24T07:21:34;4.63;;;3.28;;
19049;SDS011;9657;45.940;12.840;2023-06-24T07:24:01;4.15;;;3.17;;
19049;SDS011;9657;45.940;12.840;2023-06-24T07:26:28;6.00;;;3.10;;
19049;SDS011;9657;45.940;12.840;2023-06-24T07:28:57;4.05;;;3.63;;
19049;SDS011;9657;45.940;12.840;2023-06-24T07:31:24;3.67;;;3.30;;
19049;SDS011;9657;45.940;12.840;2023-06-24T07:33:52;3.97;;;3.30;;
19049;SDS011;9657;45.940;12.840;2023-06-24T07:36:19;5.10;;;3.40;;
19049;SDS011;9657;45.940;12.840;2023-06-24T07:38:46;5.00;;;3.30;;
19049;SDS011;9657;45.940;12.840;2023-06-24T07:41:13;3.95;;;2.97;;
19049;SDS011;9657;45.940;12.840;2023-06-24T07:43:40;3.92;;;3.35;;
19049;SDS011;9657;45.940;12.840;2023-06-24T07:46:08;3.70;;;3.28;;
19049;SDS011;9657;45.940;12.840;2023-06-24T07:48:35;4.38;;;3.08;;
19049;SDS011;9657;45.940;12.840;2023-06-24T07:51:02;3.33;;;3.03;;
19049;SDS011;9657;45.940;12.840;2023-06-24T07:53:29;4.20;;;3.03;;
19049;SDS011;9657;45.940;12.840;2023-06-24T07:55:58;5.40;;;3.88;;
19049;SDS011;9657;45.940;12.840;2023-06-24T07:58:25;5.07;;;3.00;;
19049;SDS011;9657;45.940;12.840;2023-06-24T08:00:52;5.30;;;3.55;;
19049;SDS011;9657;45.940;12.840;2023-06-24T08:03:21;4.35;;;3.58;;
19049;SDS011;9657;45.940;12.840;2023-06-24T08:05:48;4.32;;;3.38;;
19049;SDS011;9657;45.940;12.840;2023-06-24T08:08:15;4.30;;;3.50;;
19049;SDS011;9657;45.940;12.840;2023-06-24T08:10:44;3.67;;;2.92;;
19049;SDS011;9657;45.940;12.840;2023-06-24T08:13:11;4.00;;;3.30;;
19049;SDS011;9657;45.940;12.840;2023-06-24T08:15:38;4.53;;;3.45;;
19049;SDS011;9657;45.940;12.840;2023-06-24T08:18:05;4.00;;;3.50;;
19049;SDS011;9657;45.940;12.840;2023-06-24T08:20:34;5.95;;;3.50;;
19049;SDS011;9657;45.940;12.840;2023-06-24T08:23:01;5.05;;;3.67;;
19049;SDS011;9657;45.940;12.840;2023-06-24T08:25:28;3.65;;;3.13;;
19049;SDS011;9657;45.940;12.840;2023-06-24T08:27:55;4.68;;;3.40;;
19049;SDS011;9657;45.940;12.840;2023-06-24T08:30:22;4.70;;;3.42;;
19049;SDS011;9657;45.940;12.840;2023-06-24T08:32:51;3.70;;;3.28;;
19049;SDS011;9657;45.940;12.840;2023-06-24T08:35:18;3.45;;;3.15;;
19049;SDS011;9657;45.940;12.840;2023-06-24T08:37:46;4.78;;;3.30;;
19049;SDS011;9657;45.940;12.840;2023-06-24T08:40:13;3.35;;;3.05;;
19049;SDS011;9657;45.940;12.840;2023-06-24T08:42:40;3.83;;;3.38;;
19049;SDS011;9657;45.940;12.840;2023-06-24T08:45:09;4.15;;;3.03;;
19049;SDS011;9657;45.940;12.840;2023-06-24T08:47:36;3.88;;;3.40;;
19049;SDS011;9657;45.940;12.840;2023-06-24T08:50:04;4.05;;;3.35;;
19049;SDS011;9657;45.940;12.840;2023-06-24T08:52:35;4.03;;;3.47;;
19049;SDS011;9657;45.940;12.840;2023-06-24T08:55:06;4.13;;;3.40;;
19049;SDS011;9657;45.940;12.840;2023-06-24T08:57:36;3.53;;;3.13;;
19049;SDS011;9657;45.940;12.840;2023-06-24T09:00:04;3.28;;;2.97;;
19049;SDS011;9657;45.940;12.840;2023-06-24T09:02:35;4.00;;;3.17;;
19049;SDS011;9657;45.940;12.840;2023-06-24T09:05:03;4.20;;;3.13;;
19049;SDS011;9657;45.940;12.840;2023-06-24T09:07:31;3.75;;;3.42;;
19049;SDS011;9657;45.940;12.840;2023-06-24T09:09:58;3.50;;;3.20;;
19049;SDS011;9657;45.940;12.840;2023-06-24T09:12:27;3.25;;;2.95;;
19049;SDS011;9657;45.940;12.840;2023-06-24T09:14:57;4.18;;;3.15;;
19049;SDS011;9657;45.940;12.840;2023-06-24T09:17:24;3.80;;;2.85;;
19049;SDS011;9657;45.940;12.840;2023-06-24T09:19:52;3.72;;;3.08;;
19049;SDS011;9657;45.940;12.840;2023-06-24T09:22:20;3.22;;;2.90;;
19049;SDS011;9657;45.940;12.840;2023-06-24T09:24:47;3.42;;;3.10;;
19049;SDS011;9657;45.940;12.840;2023-06-24T09:27:15;4.15;;;3.30;;
19049;SDS011;9657;45.940;12.840;2023-06-24T09:29:46;4.80;;;3.58;;
19049;SDS011;9657;45.940;12.840;2023-06-24T09:32:13;4.38;;;2.90;;
19049;SDS011;9657;45.940;12.840;2023-06-24T09:34:41;3.28;;;2.63;;
19049;SDS011;9657;45.940;12.840;2023-06-24T09:37:09;4.63;;;3.15;;
19049;SDS011;9657;45.940;12.840;2023-06-24T09:39:46;3.95;;;2.88;;
19049;SDS011;9657;45.940;12.840;2023-06-24T09:42:13;3.25;;;2.95;;
19049;SDS011;9657;45.940;12.840;2023-06-24T09:44:41;3.50;;;2.67;;
19049;SDS011;9657;45.940;12.840;2023-06-24T09:47:09;4.13;;;2.60;;
19049;SDS011;9657;45.940;12.840;2023-06-24T09:49:36;3.65;;;3.28;;
19049;SDS011;9657;45.940;12.840;2023-06-24T09:52:03;4.47;;;3.00;;
19049;SDS011;9657;45.940;12.840;2023-06-24T09:54:32;2.88;;;2.60;;
19049;SDS011;9657;45.940;12.840;2023-06-24T09:57:01;2.85;;;2.55;;
19049;SDS011;9657;45.940;12.840;2023-06-24T09:59:29;2.55;;;2.35;;
19049;SDS011;9657;45.940;12.840;2023-06-24T10:01:58;2.92;;;2.72;;
19049;SDS011;9657;45.940;12.840;2023-06-24T10:04:27;3.33;;;2.78;;
19049;SDS011;9657;45.940;12.840;2023-06-24T10:06:55;3.35;;;2.90;;
19049;SDS011;9657;45.940;12.840;2023-06-24T10:09:23;2.85;;;2.50;;
19049;SDS011;9657;45.940;12.840;2023-06-24T10:11:50;3.33;;;2.75;;
19049;SDS011;9657;45.940;12.840;2023-06-24T10:14:17;3.15;;;2.60;;
19049;SDS011;9657;45.940;12.840;2023-06-24T10:16:44;2.40;;;2.20;;
19049;SDS011;9657;45.940;12.840;2023-06-24T10:19:13;2.80;;;2.47;;
19049;SDS011;9657;45.940;12.840;2023-06-24T10:21:50;3.35;;;2.63;;
19049;SDS011;9657;45.940;12.840;2023-06-24T10:24:30;4.30;;;2.60;;
19049;SDS011;9657;45.940;12.840;2023-06-24T10:27:01;2.97;;;2.47;;
19049;SDS011;9657;45.940;12.840;2023-06-24T10:29:33;3.63;;;2.70;;
19049;SDS011;9657;45.940;12.840;2023-06-24T10:32:02;3.35;;;2.90;;
19049;SDS011;9657;45.940;12.840;2023-06-24T10:34:30;3.05;;;2.50;;
19049;SDS011;9657;45.940;12.840;2023-06-24T10:37:19;2.78;;;2.58;;
19049;SDS011;9657;45.940;12.840;2023-06-24T10:39:48;3.33;;;2.90;;
19049;SDS011;9657;45.940;12.840;2023-06-24T10:42:26;2.40;;;2.15;;
19049;SDS011;9657;45.940;12.840;2023-06-24T10:44:57;3.15;;;2.85;;
19049;SDS011;9657;45.940;12.840;2023-06-24T10:47:25;3.10;;;2.35;;
19049;SDS011;9657;45.940;12.840;2023-06-24T10:49:53;2.20;;;1.95;;
19049;SDS011;9657;45.940;12.840;2023-06-24T10:52:22;2.88;;;2.50;;
19049;SDS011;9657;45.940;12.840;2023-06-24T10:54:49;2.60;;;2.40;;
19049;SDS011;9657;45.940;12.840;2023-06-24T10:57:20;3.63;;;2.53;;
19049;SDS011;9657;45.940;12.840;2023-06-24T10:59:49;2.60;;;2.40;;
19049;SDS011;9657;45.940;12.840;2023-06-24T11:02:17;3.03;;;2.25;;
19049;SDS011;9657;45.940;12.840;2023-06-24T11:04:46;3.15;;;2.30;;
19049;SDS011;9657;45.940;12.840;2023-06-24T11:07:13;3.35;;;2.47;;
19049;SDS011;9657;45.940;12.840;2023-06-24T11:09:47;3.05;;;2.55;;
19049;SDS011;9657;45.940;12.840;2023-06-24T11:12:16;2.65;;;2.28;;
19049;SDS011;9657;45.940;12.840;2023-06-24T11:14:43;2.33;;;2.13;;
19049;SDS011;9657;45.940;12.840;2023-06-24T11:17:10;2.40;;;2.20;;
19049;SDS011;9657;45.940;12.840;2023-06-24T11:19:38;2.42;;;2.22;;
19049;SDS011;9657;45.940;12.840;2023-06-24T11:22:06;2.85;;;1.80;;
19049;SDS011;9657;45.940;12.840;2023-06-24T11:24:34;4.05;;;2.00;;
19049;SDS011;9657;45.940;12.840;2023-06-24T11:27:03;2.80;;;2.35;;
19049;SDS011;9657;45.940;12.840;2023-06-24T11:29:31;2.55;;;2.20;;
19049;SDS011;9657;45.940;12.840;2023-06-24T11:34:27;2.63;;;2.33;;
19049;SDS011;9657;45.940;12.840;2023-06-24T11:36:54;2.38;;;2.10;;
19049;SDS011;9657;45.940;12.840;2023-06-24T11:39:22;2.33;;;2.22;;
19049;SDS011;9657;45.940;12.840;2023-06-24T11:41:50;1.92;;;1.77;;
19049;SDS011;9657;45.940;12.840;2023-06-24T11:44:20;2.40;;;2.10;;
19049;SDS011;9657;45.940;12.840;2023-06-24T11:46:49;2.10;;;1.90;;
19049;SDS011;9657;45.940;12.840;2023-06-24T11:49:17;2.28;;;1.85;;
19049;SDS011;9657;45.940;12.840;2023-06-24T11:51:46;2.10;;;1.90;;
19049;SDS011;9657;45.940;12.840;2023-06-24T11:54:14;2.45;;;2.22;;
19049;SDS011;9657;45.940;12.840;2023-06-24T11:56:43;2.17;;;1.90;;
19049;SDS011;9657;45.940;12.840;2023-06-24T11:59:15;2.40;;;1.92;;
19049;SDS011;9657;45.940;12.840;2023-06-24T12:01:45;4.40;;;2.17;;
19049;SDS011;9657;45.940;12.840;2023-06-24T12:04:18;2.05;;;1.85;;
19049;SDS011;9657;45.940;12.840;2023-06-24T12:06:45;2.25;;;2.00;;
19049;SDS011;9657;45.940;12.840;2023-06-24T12:09:12;2.33;;;2.13;;
19049;SDS011;9657;45.940;12.840;2023-06-24T12:11:39;2.15;;;1.95;;
19049;SDS011;9657;45.940;12.840;2023-06-24T12:14:06;2.42;;;1.88;;
19049;SDS011;9657;45.940;12.840;2023-06-24T12:16:33;2.55;;;2.10;;
19049;SDS011;9657;45.940;12.840;2023-06-24T12:19:02;1.80;;;1.70;;
19049;SDS011;9657;45.940;12.840;2023-06-24T12:21:29;1.60;;;1.50;;
19049;SDS011;9657;45.940;12.840;2023-06-24T12:23:56;2.13;;;1.88;;
19049;SDS011;9657;45.940;12.840;2023-06-24T12:26:23;1.80;;;1.70;;
19049;SDS011;9657;45.940;12.840;2023-06-24T12:28:53;2.50;;;2.10;;
19049;SDS011;9657;45.940;12.840;2023-06-24T12:31:21;2.28;;;1.80;;
19049;SDS011;9657;45.940;12.840;2023-06-24T12:33:48;1.75;;;1.63;;
19049;SDS011;9657;45.940;12.840;2023-06-24T12:36:18;1.45;;;1.35;;
19049;SDS011;9657;45.940;12.840;2023-06-24T12:38:45;1.50;;;1.40;;
19049;SDS011;9657;45.940;12.840;2023-06-24T12:41:12;1.33;;;1.23;;
19049;SDS011;9657;45.940;12.840;2023-06-24T12:43:39;1.63;;;1.40;;
19049;SDS011;9657;45.940;12.840;2023-06-24T12:46:06;1.50;;;1.40;;
19049;SDS011;9657;45.940;12.840;2023-06-24T12:48:33;2.40;;;1.90;;
19049;SDS011;9657;45.940;12.840;2023-06-24T12:51:00;1.95;;;1.60;;
19049;SDS011;9657;45.940;12.840;2023-06-24T12:53:29;1.60;;;1.50;;
19049;SDS011;9657;45.940;12.840;2023-06-24T12:55:56;2.13;;;1.88;;
19049;SDS011;9657;45.940;12.840;2023-06-24T12:58:23;2.38;;;1.80;;
19049;SDS011;9657;45.940;12.840;2023-06-24T13:00:51;3.17;;;1.98;;
19049;SDS011;9657;45.940;12.840;2023-06-24T13:03:18;2.05;;;1.50;;
19049;SDS011;9657;45.940;12.840;2023-06-24T13:05:45;3.20;;;2.22;;
19049;SDS011;9657;45.940;12.840;2023-06-24T13:08:12;2.20;;;1.70;;
19049;SDS011;9657;45.940;12.840;2023-06-24T13:10:41;2.33;;;1.70;;
19049;SDS011;9657;45.940;12.840;2023-06-24T13:13:08;1.70;;;1.60;;
19049;SDS011;9657;45.940;12.840;2023-06-24T13:15:35;2.00;;;1.60;;
19049;SDS011;9657;45.940;12.840;2023-06-24T13:18:03;1.80;;;1.70;;
19049;SDS011;9657;45.940;12.840;2023-06-24T13:20:30;1.70;;;1.60;;
19049;SDS011;9657;45.940;12.840;2023-06-24T13:22:58;1.60;;;1.48;;
19049;SDS011;9657;45.940;12.840;2023-06-24T13:25:25;2.03;;;1.60;;
19049;SDS011;9657;45.940;12.840;2023-06-24T13:27:53;1.48;;;1.20;;
19049;SDS011;9657;45.940;12.840;2023-06-24T13:30:21;1.40;;;1.30;;
19049;SDS011;9657;45.940;12.840;2023-06-24T13:32:48;1.42;;;1.08;;
19049;SDS011;9657;45.940;12.840;2023-06-24T13:35:15;1.50;;;1.33;;
19049;SDS011;9657;45.940;12.840;2023-06-24T13:37:42;1.20;;;1.10;;
19049;SDS011;9657;45.940;12.840;2023-06-24T13:40:10;1.33;;;1.02;;
19049;SDS011;9657;45.940;12.840;2023-06-24T13:42:37;1.95;;;0.88;;
19049;SDS011;9657;45.940;12.840;2023-06-24T13:45:06;1.13;;;0.90;;
19049;SDS011;9657;45.940;12.840;2023-06-24T13:47:34;1.35;;;1.17;;
19049;SDS011;9657;45.940;12.840;2023-06-24T13:50:01;1.35;;;1.10;;
19049;SDS011;9657;45.940;12.840;2023-06-24T13:52:28;0.88;;;0.88;;
19049;SDS011;9657;45.940;12.840;2023-06-24T13:54:55;1.33;;;1.10;;
19049;SDS011;9657;45.940;12.840;2023-06-24T13:57:22;1.55;;;1.20;;
19049;SDS011;9657;45.940;12.840;2023-06-24T13:59:49;1.38;;;1.27;;
19049;SDS011;9657;45.940;12.840;2023-06-24T14:02:18;1.40;;;1.27;;
19049;SDS011;9657;45.940;12.840;2023-06-24T14:04:45;0.98;;;0.90;;
19049;SDS011;9657;45.940;12.840;2023-06-24T14:07:13;1.42;;;1.08;;
19049;SDS011;9657;45.940;12.840;2023-06-24T14:09:40;1.05;;;0.93;;
19049;SDS011;9657;45.940;12.840;2023-06-24T14:12:08;1.10;;;1.00;;
19049;SDS011;9657;45.940;12.840;2023-06-24T14:14:35;0.95;;;0.95;;
19049;SDS011;9657;45.940;12.840;2023-06-24T14:17:04;1.25;;;1.15;;
19049;SDS011;9657;45.940;12.840;2023-06-24T14:19:35;1.25;;;0.93;;
19049;SDS011;9657;45.940;12.840;2023-06-24T14:22:02;1.27;;;0.95;;
19049;SDS011;9657;45.940;12.840;2023-06-24T14:24:29;0.88;;;0.77;;
19049;SDS011;9657;45.940;12.840;2023-06-24T14:26:56;0.98;;;0.70;;
19049;SDS011;9657;45.940;12.840;2023-06-24T14:29:24;1.00;;;0.90;;
19049;SDS011;9657;45.940;12.840;2023-06-24T14:31:51;1.92;;;0.95;;
19049;SDS011;9657;45.940;12.840;2023-06-24T14:34:18;1.17;;;1.08;;
19049;SDS011;9657;45.940;12.840;2023-06-24T14:36:47;2.63;;;1.05;;
19049;SDS011;9657;45.940;12.840;2023-06-24T14:39:14;0.80;;;0.70;;
19049;SDS011;9657;45.940;12.840;2023-06-24T14:41:42;1.77;;;0.75;;
19049;SDS011;9657;45.940;12.840;2023-06-24T14:44:10;1.13;;;0.70;;
19049;SDS011;9657;45.940;12.840;2023-06-24T14:46:37;1.35;;;0.70;;
19049;SDS011;9657;45.940;12.840;2023-06-24T14:49:04;0.85;;;0.77;;
19049;SDS011;9657;45.940;12.840;2023-06-24T14:51:31;1.35;;;1.10;;
19049;SDS011;9657;45.940;12.840;2023-06-24T14:53:59;0.90;;;0.80;;
19049;SDS011;9657;45.940;12.840;2023-06-24T14:56:26;1.00;;;0.80;;
19049;SDS011;9657;45.940;12.840;2023-06-24T14:58:53;0.75;;;0.75;;
19049;SDS011;9657;45.940;12.840;2023-06-24T15:01:20;1.75;;;0.90;;
19049;SDS011;9657;45.940;12.840;2023-06-24T15:03:47;1.10;;;0.80;;